Time;durP1;ratioP1;P1;durP2;ratioP2;P2;SDS_P1;SDS_P2;PMS_P1;PMS_P2;Temp;Humidity;BMP_temperature;BMP_pressure;BME280_temperature;BME280_humidity;BME280_pressure;Samples;Min_cycle;Max_cycle;Signal;HPM_P1;HPM_P2
2023/04/29 00:00:07;;;;;;;10.18;6.95;;;9.20;99.90;;;;;;4984032;28;20039;-79
2023/04/29 00:02:33;;;;;;;9.50;5.43;;;9.20;99.90;;;;;;5000298;28;20050;-79
2023/04/29 00:04:59;;;;;;;11.57;6.13;;;9.20;99.90;;;;;;5003089;28;20050;-79
2023/04/29 00:07:24;;;;;;;13.73;6.05;;;9.20;99.90;;;;;;5004919;28;20546;-79
2023/04/29 00:09:50;;;;;;;11.10;6.90;;;9.20;99.90;;;;;;5003008;28;20489;-78
2023/04/29 00:12:16;;;;;;;11.13;6.57;;;9.20;99.90;;;;;;5019292;28;20104;-79
2023/04/29 00:14:42;;;;;;;11.15;5.97;;;9.20;99.90;;;;;;4989713;28;20046;-79
2023/04/29 00:17:08;;;;;;;12.63;5.82;;;9.20;99.90;;;;;;5004433;28;20080;-79
2023/04/29 00:19:34;;;;;;;13.60;7.38;;;9.20;99.90;;;;;;5002219;28;20042;-78
2023/04/29 00:22:00;;;;;;;12.45;5.32;;;9.20;99.90;;;;;;5004024;28;20096;-79
2023/04/29 00:24:26;;;;;;;12.63;5.88;;;9.20;99.90;;;;;;4989522;28;20042;-80
2023/04/29 00:26:51;;;;;;;7.85;6.15;;;9.20;99.90;;;;;;4985139;28;20046;-79
2023/04/29 00:29:17;;;;;;;11.45;5.65;;;9.10;99.90;;;;;;5006268;28;20060;-79
2023/04/29 00:31:43;;;;;;;11.57;6.15;;;9.20;99.90;;;;;;5004015;28;20129;-79
2023/04/29 00:34:09;;;;;;;7.63;5.20;;;9.20;99.90;;;;;;4991263;28;20057;-79
2023/04/29 00:36:35;;;;;;;9.00;5.38;;;9.10;99.90;;;;;;4984039;28;20043;-78
2023/04/29 00:39:02;;;;;;;8.23;5.78;;;9.10;99.90;;;;;;4984290;28;20509;-79
2023/04/29 00:41:28;;;;;;;13.57;6.18;;;9.10;99.90;;;;;;4982783;28;20489;-79
2023/04/29 00:43:54;;;;;;;5.90;4.32;;;9.10;99.90;;;;;;4994600;28;20046;-79
2023/04/29 00:46:20;;;;;;;12.63;5.90;;;9.10;99.90;;;;;;5003870;28;20092;-79
2023/04/29 00:48:45;;;;;;;10.30;5.72;;;9.10;99.90;;;;;;4989539;28;20046;-78
2023/04/29 00:51:12;;;;;;;11.38;7.10;;;9.10;99.90;;;;;;4982299;28;20049;-78
2023/04/29 00:53:38;;;;;;;10.10;7.00;;;9.10;99.90;;;;;;4989087;28;20041;-78
2023/04/29 00:56:06;;;;;;;17.38;6.50;;;9.00;99.90;;;;;;5003480;28;20404;-79
2023/04/29 00:58:34;;;;;;;12.05;6.50;;;9.00;99.90;;;;;;5003742;28;20041;-78
2023/04/29 01:01:02;;;;;;;8.85;5.75;;;9.00;99.90;;;;;;5003402;28;20435;-79
2023/04/29 01:03:29;;;;;;;11.00;5.70;;;9.00;99.90;;;;;;5093611;22;20066;-78
2023/04/29 01:06:24;;;;;;;11.35;5.18;;;9.00;99.90;;;;;;4998111;28;20054;-79
2023/04/29 01:09:09;;;;;;;11.18;6.88;;;8.90;99.90;;;;;;4982322;28;20043;-78
2023/04/29 01:12:05;;;;;;;8.65;6.45;;;8.90;99.90;;;;;;4983468;28;20055;-78
2023/04/29 01:14:33;;;;;;;7.38;5.80;;;8.90;99.90;;;;;;4983719;28;20058;-78
2023/04/29 01:17:04;;;;;;;12.15;6.32;;;8.90;99.90;;;;;;4984463;28;20038;-78
2023/04/29 01:20:05;;;;;;;11.73;5.85;;;8.90;99.90;;;;;;4983353;28;20049;-79
2023/04/29 01:22:31;;;;;;;14.65;6.38;;;8.90;99.90;;;;;;4982143;28;20046;-79
2023/04/29 01:24:57;;;;;;;12.98;5.97;;;8.90;99.90;;;;;;4966417;28;20138;-79
2023/04/29 01:27:59;;;;;;;9.25;6.90;;;8.80;99.90;;;;;;4983383;28;20043;-78
2023/04/29 01:30:51;;;;;;;10.88;7.20;;;8.90;99.90;;;;;;4984437;28;20055;-78
2023/04/29 01:33:19;;;;;;;12.77;6.88;;;8.80;99.90;;;;;;4982929;28;20408;-79
2023/04/29 01:36:13;;;;;;;12.73;7.30;;;8.90;99.90;;;;;;4998054;28;20166;-79
2023/04/29 01:39:01;;;;;;;15.25;7.28;;;8.90;99.90;;;;;;4988602;28;20054;-78
2023/04/29 01:41:40;;;;;;;17.55;8.15;;;8.90;99.90;;;;;;4988767;28;20085;-79
2023/04/29 01:44:11;;;;;;;14.23;7.20;;;8.80;99.90;;;;;;5007358;28;20400;-79
2023/04/29 01:46:37;;;;;;;14.18;7.32;;;8.80;99.90;;;;;;5005701;28;20038;-79
2023/04/29 01:49:02;;;;;;;14.65;6.47;;;8.90;99.90;;;;;;4998995;28;20054;-79
2023/04/29 01:51:28;;;;;;;11.65;6.28;;;8.90;99.90;;;;;;5005563;28;20064;-80
2023/04/29 01:53:54;;;;;;;18.50;7.80;;;8.90;99.90;;;;;;5007455;28;20050;-78
2023/04/29 01:56:19;;;;;;;14.48;7.90;;;8.80;99.90;;;;;;5006022;28;20524;-79
2023/04/29 01:58:45;;;;;;;17.08;7.68;;;8.90;99.90;;;;;;5002965;28;20050;-79
2023/04/29 02:01:11;;;;;;;17.25;8.35;;;8.90;99.90;;;;;;5007090;28;20049;-79
2023/04/29 02:03:37;;;;;;;17.92;9.07;;;8.90;99.90;;;;;;5005842;28;20081;-80
2023/04/29 02:06:05;;;;;;;18.08;7.60;;;8.90;99.90;;;;;;5006829;28;20064;-79
2023/04/29 02:08:31;;;;;;;15.55;8.80;;;8.90;99.90;;;;;;4993677;28;20478;-79
2023/04/29 02:10:58;;;;;;;17.38;8.43;;;8.90;99.90;;;;;;4987267;28;20133;-80
2023/04/29 02:13:24;;;;;;;16.67;8.65;;;8.90;99.90;;;;;;4987796;28;20053;-79
2023/04/29 02:15:50;;;;;;;15.07;8.18;;;8.90;99.90;;;;;;4987003;28;20038;-79
2023/04/29 02:18:15;;;;;;;13.00;8.00;;;8.90;99.90;;;;;;4994960;28;20432;-78
2023/04/29 02:20:42;;;;;;;12.25;7.95;;;8.90;99.90;;;;;;5005253;28;20042;-79
2023/04/29 02:23:07;;;;;;;11.15;6.85;;;8.90;99.90;;;;;;4987171;28;20137;-79
2023/04/29 02:25:33;;;;;;;14.15;7.75;;;8.90;99.90;;;;;;4986666;28;20121;-79
2023/04/29 02:27:59;;;;;;;15.75;7.60;;;8.90;99.90;;;;;;5006544;28;20040;-79
2023/04/29 02:30:24;;;;;;;17.42;7.30;;;8.90;99.90;;;;;;5022060;28;20049;-79
2023/04/29 02:32:50;;;;;;;12.90;7.03;;;8.90;99.90;;;;;;5005993;28;20907;-79
2023/04/29 02:35:16;;;;;;;11.80;7.38;;;8.90;99.90;;;;;;5005725;28;20049;-79
2023/04/29 02:37:41;;;;;;;14.15;6.68;;;8.80;99.90;;;;;;4987709;28;20050;-79
2023/04/29 02:40:07;;;;;;;14.68;8.55;;;8.80;99.90;;;;;;4986716;28;20046;-79
2023/04/29 02:42:33;;;;;;;13.13;6.15;;;8.90;99.90;;;;;;4986132;28;20042;-79
2023/04/29 02:44:58;;;;;;;10.43;7.25;;;8.90;99.90;;;;;;4986942;28;20085;-79
2023/04/29 02:47:24;;;;;;;14.27;6.50;;;8.90;99.90;;;;;;4998158;28;20172;-79
2023/04/29 02:49:50;;;;;;;12.90;7.00;;;8.80;99.90;;;;;;4983814;28;20046;-79
2023/04/29 02:52:18;;;;;;;13.00;7.38;;;8.90;99.90;;;;;;4985296;28;20050;-79
2023/04/29 02:54:44;;;;;;;21.05;8.40;;;8.90;99.90;;;;;;4985211;28;20042;-79
2023/04/29 02:57:09;;;;;;;20.65;5.63;;;8.90;99.90;;;;;;4998531;28;20034;-79
2023/04/29 02:59:35;;;;;;;16.08;6.43;;;8.90;99.90;;;;;;5005520;28;20041;-79
2023/04/29 03:02:01;;;;;;;9.55;6.43;;;8.90;99.90;;;;;;5005014;28;20453;-79
2023/04/29 03:04:27;;;;;;;12.20;6.60;;;8.90;99.90;;;;;;4991146;28;20065;-79
2023/04/29 03:06:55;;;;;;;13.95;8.10;;;8.90;99.90;;;;;;4995090;28;20034;-79
2023/04/29 03:09:22;;;;;;;11.65;6.72;;;8.80;99.90;;;;;;5004761;28;20042;-79
2023/04/29 03:11:48;;;;;;;18.88;6.10;;;8.90;99.90;;;;;;5005918;28;20042;-78
2023/04/29 03:14:14;;;;;;;12.77;6.35;;;8.90;99.90;;;;;;4990237;28;20057;-79
2023/04/29 03:16:39;;;;;;;6.10;5.38;;;8.90;99.90;;;;;;4984967;28;20104;-79
2023/04/29 03:19:05;;;;;;;8.95;5.53;;;8.90;99.90;;;;;;4985302;28;20101;-79
2023/04/29 03:21:31;;;;;;;15.57;6.30;;;8.80;99.90;;;;;;4998147;28;20077;-79
2023/04/29 03:23:57;;;;;;;13.48;7.28;;;8.80;99.90;;;;;;4991746;28;20078;-79
2023/04/29 03:26:23;;;;;;;12.27;6.43;;;8.80;99.90;;;;;;4986408;28;20069;-79
2023/04/29 03:28:49;;;;;;;10.45;7.28;;;8.90;99.90;;;;;;4984174;28;20050;-79
2023/04/29 03:31:15;;;;;;;17.30;7.38;;;8.80;99.90;;;;;;4985932;28;20049;-79
2023/04/29 03:33:41;;;;;;;11.55;7.50;;;8.90;99.90;;;;;;4983623;28;20058;-79
2023/04/29 03:36:07;;;;;;;13.85;8.35;;;8.80;99.90;;;;;;4985889;28;20485;-79
2023/04/29 03:38:33;;;;;;;13.50;7.35;;;8.80;99.90;;;;;;4984089;28;20105;-79
2023/04/29 03:40:59;;;;;;;16.25;7.75;;;8.90;99.90;;;;;;4985766;28;20042;-79
2023/04/29 03:43:25;;;;;;;16.85;6.45;;;8.90;99.90;;;;;;4993903;28;20041;-79
2023/04/29 03:45:51;;;;;;;12.20;6.03;;;8.90;99.90;;;;;;5005391;28;20038;-79
2023/04/29 03:48:17;;;;;;;7.25;5.45;;;8.80;99.90;;;;;;4994276;28;20034;-80
2023/04/29 03:50:42;;;;;;;9.65;6.20;;;8.80;99.90;;;;;;4984985;28;20048;-79
2023/04/29 03:53:08;;;;;;;8.10;4.70;;;8.90;99.90;;;;;;4991529;28;20061;-79
2023/04/29 03:55:34;;;;;;;10.88;4.85;;;8.90;99.90;;;;;;5004551;28;20050;-79
2023/04/29 03:57:59;;;;;;;14.05;5.85;;;8.90;99.90;;;;;;5004585;28;20519;-79
2023/04/29 04:00:25;;;;;;;6.00;4.57;;;8.80;99.90;;;;;;5005002;28;20074;-79
2023/04/29 04:02:51;;;;;;;9.52;4.45;;;8.80;99.90;;;;;;5000317;28;20042;-79
2023/04/29 04:05:20;;;;;;;11.70;5.63;;;8.80;99.90;;;;;;4996957;28;20061;-79
2023/04/29 04:07:46;;;;;;;6.28;4.68;;;8.90;99.90;;;;;;5002643;28;20125;-79
2023/04/29 04:10:11;;;;;;;14.40;5.32;;;8.80;99.90;;;;;;4995104;28;20125;-79
2023/04/29 04:12:37;;;;;;;6.97;3.95;;;8.80;99.90;;;;;;4983462;28;20054;-78
2023/04/29 04:15:03;;;;;;;6.53;4.38;;;8.80;99.90;;;;;;4983879;28;20092;-79
2023/04/29 04:17:29;;;;;;;9.57;3.92;;;8.80;99.90;;;;;;4984476;28;20488;-79
2023/04/29 04:19:54;;;;;;;9.02;4.13;;;8.90;99.90;;;;;;4991818;28;20034;-79
2023/04/29 04:22:20;;;;;;;7.65;4.18;;;8.80;99.90;;;;;;5005012;28;20392;-79
2023/04/29 04:24:46;;;;;;;5.68;5.05;;;8.80;99.90;;;;;;5003997;28;20111;-79
2023/04/29 04:27:12;;;;;;;7.00;3.60;;;8.80;99.90;;;;;;4995293;28;20073;-79
2023/04/29 04:29:37;;;;;;;5.75;3.50;;;8.80;99.90;;;;;;5003987;28;20053;-79
2023/04/29 04:32:03;;;;;;;6.43;3.40;;;8.80;99.90;;;;;;5004018;28;20038;-79
2023/04/29 04:34:29;;;;;;;5.68;3.10;;;8.80;99.90;;;;;;5003306;28;20049;-79
2023/04/29 04:36:54;;;;;;;6.68;3.38;;;8.80;99.90;;;;;;4993709;28;20503;-79
2023/04/29 04:39:20;;;;;;;6.55;3.38;;;8.70;99.90;;;;;;4983411;28;20084;-79
2023/04/29 04:41:46;;;;;;;5.20;3.10;;;8.70;99.90;;;;;;4984567;28;20543;-79
2023/04/29 04:44:12;;;;;;;6.95;3.90;;;8.70;99.90;;;;;;4984721;28;20045;-79
2023/04/29 04:46:37;;;;;;;5.68;3.15;;;8.60;99.90;;;;;;4992511;28;20037;-79
2023/04/29 04:49:03;;;;;;;14.25;3.40;;;8.60;99.90;;;;;;4986738;28;20045;-79
2023/04/29 04:51:28;;;;;;;7.80;3.67;;;8.60;99.90;;;;;;4989579;28;20124;-79
2023/04/29 04:53:54;;;;;;;11.30;3.83;;;8.60;99.90;;;;;;5004396;28;20508;-78
2023/04/29 04:56:20;;;;;;;7.43;3.65;;;8.60;99.90;;;;;;4997896;28;20046;-79
2023/04/29 04:58:46;;;;;;;5.13;3.50;;;8.50;99.90;;;;;;4982811;28;20067;-79
2023/04/29 05:01:11;;;;;;;4.97;3.03;;;8.50;99.90;;;;;;4983427;28;20055;-79
2023/04/29 05:03:37;;;;;;;5.10;3.13;;;8.50;99.90;;;;;;4983370;28;20078;-78
2023/04/29 05:06:03;;;;;;;10.15;4.13;;;8.50;99.90;;;;;;4983534;28;20054;-78
2023/04/29 05:08:29;;;;;;;8.30;3.40;;;8.50;99.90;;;;;;4983905;28;20246;-79
2023/04/29 05:10:55;;;;;;;8.95;3.63;;;8.50;99.90;;;;;;4984758;28;20053;-79
2023/04/29 05:13:20;;;;;;;9.90;3.90;;;8.50;99.90;;;;;;5000048;28;20512;-78
2023/04/29 05:15:46;;;;;;;4.63;2.30;;;8.50;99.90;;;;;;4983541;28;20046;-78
2023/04/29 05:18:12;;;;;;;4.07;2.53;;;8.50;99.90;;;;;;5002792;28;20050;-79
2023/04/29 05:20:37;;;;;;;4.93;2.50;;;8.50;99.90;;;;;;4987310;28;20038;-79
2023/04/29 05:23:03;;;;;;;11.27;3.38;;;8.60;99.90;;;;;;4983566;28;20170;-79
2023/04/29 05:25:29;;;;;;;7.45;4.07;;;8.50;99.90;;;;;;4982954;28;20081;-79
2023/04/29 05:27:54;;;;;;;11.50;3.25;;;8.50;99.90;;;;;;4996305;28;20042;-79
2023/04/29 05:30:20;;;;;;;9.30;4.28;;;8.60;99.90;;;;;;4988822;28;20093;-79
2023/04/29 05:32:47;;;;;;;7.32;3.72;;;8.60;99.90;;;;;;4983818;28;20046;-79
2023/04/29 05:35:13;;;;;;;3.58;2.97;;;8.60;99.90;;;;;;4982863;28;20053;-79
2023/04/29 05:37:39;;;;;;;11.05;3.20;;;8.60;99.90;;;;;;4985026;28;20046;-78
2023/04/29 05:40:06;;;;;;;6.43;3.10;;;8.60;99.90;;;;;;4982680;28;20042;-79
2023/04/29 05:42:31;;;;;;;5.70;3.03;;;8.60;99.90;;;;;;4983821;28;20057;-79
2023/04/29 05:44:57;;;;;;;7.00;2.78;;;8.70;99.90;;;;;;4999205;28;20046;-78
2023/04/29 05:47:22;;;;;;;11.30;3.97;;;8.70;99.90;;;;;;4995906;28;20043;-79
2023/04/29 05:49:48;;;;;;;13.57;3.55;;;8.70;99.90;;;;;;5002152;28;20042;-79
2023/04/29 05:52:14;;;;;;;4.05;2.78;;;8.70;99.90;;;;;;5003574;28;20053;-79
2023/04/29 05:54:40;;;;;;;4.22;3.10;;;8.70;99.90;;;;;;5003318;28;20048;-79
2023/04/29 05:57:06;;;;;;;10.43;3.97;;;8.70;99.90;;;;;;4993529;28;20034;-79
2023/04/29 05:59:32;;;;;;;6.70;2.05;;;8.80;99.90;;;;;;4983723;28;20129;-79
2023/04/29 06:01:59;;;;;;;4.88;2.70;;;8.80;99.90;;;;;;4983916;28;20062;-79
2023/04/29 06:04:25;;;;;;;5.97;2.10;;;8.80;99.90;;;;;;4983068;28;20133;-78
2023/04/29 06:06:52;;;;;;;7.82;2.83;;;8.90;99.90;;;;;;4983714;28;20050;-79
2023/04/29 06:09:19;;;;;;;6.28;4.57;;;8.90;99.90;;;;;;4993326;28;20038;-80
2023/04/29 06:11:45;;;;;;;4.75;3.63;;;8.90;99.90;;;;;;5003021;28;20052;-79
2023/04/29 06:14:11;;;;;;;8.27;3.10;;;8.90;99.90;;;;;;4994669;28;20058;-79
2023/04/29 06:16:38;;;;;;;5.95;2.88;;;9.00;99.90;;;;;;4981610;28;20264;-79
2023/04/29 06:19:03;;;;;;;6.30;2.75;;;9.00;99.90;;;;;;4993528;28;20054;-79
2023/04/29 06:21:30;;;;;;;9.57;3.17;;;9.00;99.90;;;;;;5001998;28;20082;-79
2023/04/29 06:23:56;;;;;;;3.67;2.30;;;9.00;99.90;;;;;;5002822;28;20045;-80
2023/04/29 06:26:21;;;;;;;5.03;3.38;;;9.00;99.90;;;;;;4996915;28;20041;-79
2023/04/29 06:28:47;;;;;;;2.75;1.90;;;9.00;99.90;;;;;;5006236;28;20038;-79
2023/04/29 06:31:13;;;;;;;4.32;2.28;;;9.00;99.90;;;;;;5021493;28;20045;-81
2023/04/29 06:33:38;;;;;;;2.03;1.80;;;9.00;99.90;;;;;;4994011;28;20121;-82
2023/04/29 06:36:04;;;;;;;4.28;2.53;;;9.10;99.90;;;;;;4984582;28;20301;-80
2023/04/29 06:38:30;;;;;;;7.18;3.03;;;9.10;99.90;;;;;;4985053;28;20134;-79
2023/04/29 06:40:59;;;;;;;4.18;1.73;;;9.10;99.90;;;;;;4986935;28;20077;-82
2023/04/29 06:43:28;;;;;;;3.28;2.05;;;9.10;99.90;;;;;;4986512;28;20052;-80
2023/04/29 06:45:54;;;;;;;4.47;1.98;;;9.10;99.90;;;;;;4987244;28;20046;-80
2023/04/29 06:48:20;;;;;;;5.45;3.33;;;9.20;99.90;;;;;;4984775;28;20527;-80
2023/04/29 06:50:49;;;;;;;5.60;3.00;;;9.20;99.90;;;;;;4985226;28;20136;-80
2023/04/29 06:53:14;;;;;;;3.42;1.90;;;9.20;99.90;;;;;;4998243;28;20050;-79
2023/04/29 06:55:40;;;;;;;14.32;2.85;;;9.20;99.90;;;;;;4997654;28;20704;-80
2023/04/29 06:58:06;;;;;;;3.40;2.67;;;9.20;99.90;;;;;;4986226;28;20054;-80
2023/04/29 07:00:32;;;;;;;8.68;2.50;;;9.30;99.90;;;;;;4985746;28;20595;-80
2023/04/29 07:02:58;;;;;;;4.80;2.85;;;9.30;99.90;;;;;;4989167;28;20508;-80
2023/04/29 07:05:24;;;;;;;5.35;2.78;;;9.30;99.90;;;;;;4987376;28;20061;-79
2023/04/29 07:07:49;;;;;;;4.30;2.22;;;9.40;99.90;;;;;;4984774;28;20109;-79
2023/04/29 07:10:15;;;;;;;4.20;1.92;;;9.40;99.90;;;;;;4991744;28;20050;-82
2023/04/29 07:12:40;;;;;;;9.45;3.47;;;9.40;99.90;;;;;;4985805;28;20042;-79
2023/04/29 07:15:06;;;;;;;2.72;1.83;;;9.40;99.90;;;;;;4984930;28;20099;-81
2023/04/29 07:17:32;;;;;;;2.90;2.28;;;9.40;99.90;;;;;;5001305;28;20050;-78
2023/04/29 07:19:58;;;;;;;4.35;2.03;;;9.40;99.90;;;;;;4996620;28;20400;-77
2023/04/29 07:22:24;;;;;;;4.78;2.53;;;9.40;99.90;;;;;;4994907;28;20149;-79
2023/04/29 07:24:53;;;;;;;4.55;2.28;;;9.50;99.90;;;;;;5008265;28;20049;-79
2023/04/29 07:27:18;;;;;;;2.33;1.65;;;9.50;99.90;;;;;;4996302;28;20044;-80
2023/04/29 07:29:44;;;;;;;2.40;1.65;;;9.50;99.90;;;;;;4995622;28;20050;-80
2023/04/29 07:32:09;;;;;;;4.53;2.30;;;9.60;99.90;;;;;;4991082;28;20042;-81
2023/04/29 07:34:35;;;;;;;4.05;1.48;;;9.60;99.90;;;;;;4985236;28;20125;-81
2023/04/29 07:37:01;;;;;;;3.58;2.35;;;9.60;99.90;;;;;;4987884;28;20042;-82
2023/04/29 07:39:28;;;;;;;6.70;2.22;;;9.70;99.90;;;;;;4982916;28;20599;-83
2023/04/29 07:41:53;;;;;;;7.05;2.35;;;9.70;99.90;;;;;;4984792;28;20125;-83
2023/04/29 07:44:22;;;;;;;6.25;1.90;;;9.70;99.90;;;;;;5002165;28;20121;-86
2023/04/29 07:46:48;;;;;;;4.28;1.80;;;9.70;99.90;;;;;;4992857;28;20428;-86
2023/04/29 07:49:13;;;;;;;3.38;1.92;;;9.70;99.90;;;;;;4983899;28;20061;-86
2023/04/29 07:51:42;;;;;;;3.50;1.58;;;9.80;99.90;;;;;;4989742;28;20133;-86
2023/04/29 07:54:09;;;;;;;2.35;1.55;;;9.80;99.90;;;;;;4994986;28;20039;-83
2023/04/29 07:56:34;;;;;;;2.08;1.38;;;9.80;99.90;;;;;;4994011;28;20057;-83
2023/04/29 07:59:00;;;;;;;3.95;1.58;;;9.90;99.90;;;;;;4996960;28;20057;-88
2023/04/29 08:01:27;;;;;;;4.18;2.33;;;9.90;99.90;;;;;;4975867;28;20294;-90
2023/04/29 08:03:53;;;;;;;6.20;2.95;;;9.90;99.90;;;;;;4988967;28;20062;-86
2023/04/29 08:06:21;;;;;;;8.88;1.65;;;10.00;99.90;;;;;;4984328;28;20047;-91
2023/04/29 08:08:47;;;;;;;3.90;2.10;;;10.00;99.90;;;;;;4981268;28;20061;-95
2023/04/29 08:11:20;;;;;;;2.65;1.85;;;10.00;99.90;;;;;;4982353;28;20042;-89
2023/04/29 08:13:46;;;;;;;4.43;1.42;;;10.10;99.90;;;;;;4956950;28;20048;-81
2023/04/29 08:16:12;;;;;;;5.43;2.50;;;10.20;99.90;;;;;;4977064;28;20043;-88
2023/04/29 08:18:38;;;;;;;5.20;2.22;;;10.20;99.90;;;;;;4976950;28;20049;-85
2023/04/29 08:21:04;;;;;;;4.40;2.58;;;10.20;99.90;;;;;;4967504;28;20054;-81
2023/04/29 08:23:33;;;;;;;2.70;2.10;;;10.20;99.90;;;;;;4980112;28;20038;-86
2023/04/29 08:25:58;;;;;;;2.90;2.28;;;10.30;99.90;;;;;;4980196;28;20061;-85
2023/04/29 08:28:27;;;;;;;4.15;2.45;;;10.20;99.90;;;;;;4973752;28;20057;-83
2023/04/29 08:30:52;;;;;;;4.53;2.20;;;10.30;99.90;;;;;;4967396;28;20053;-81
2023/04/29 08:33:18;;;;;;;4.22;2.40;;;10.30;99.90;;;;;;4965437;28;20043;-82
2023/04/29 08:35:43;;;;;;;3.70;2.50;;;10.40;99.90;;;;;;4966130;28;20042;-79
2023/04/29 08:38:09;;;;;;;3.47;2.30;;;10.40;99.90;;;;;;4984214;28;20046;-81
2023/04/29 08:40:40;;;;;;;5.03;2.75;;;10.40;99.90;;;;;;4984102;28;20326;-81
2023/04/29 08:43:08;;;;;;;5.22;2.20;;;10.40;99.90;;;;;;4984242;28;20053;-86
2023/04/29 08:45:35;;;;;;;6.13;3.40;;;10.50;99.90;;;;;;4982939;28;20074;-84
2023/04/29 08:48:03;;;;;;;8.40;2.42;;;10.50;99.90;;;;;;4980789;28;20564;-85
2023/04/29 08:50:39;;;;;;;6.80;2.75;;;10.60;99.90;;;;;;4982532;28;20098;-86
2023/04/29 08:53:09;;;;;;;4.97;2.72;;;10.70;99.90;;;;;;4982679;28;20476;-86
2023/04/29 08:55:41;;;;;;;3.30;1.95;;;10.70;99.90;;;;;;4984369;28;20081;-85
2023/04/29 08:58:07;;;;;;;5.95;2.83;;;10.80;99.90;;;;;;4983835;28;20089;-86
2023/04/29 09:00:34;;;;;;;5.05;2.38;;;10.80;99.90;;;;;;4983291;28;20065;-84
2023/04/29 09:03:04;;;;;;;8.18;2.95;;;10.80;99.90;;;;;;4983440;28;20039;-84
2023/04/29 09:05:32;;;;;;;8.00;2.38;;;10.80;99.90;;;;;;4984469;28;20050;-82
2023/04/29 09:08:02;;;;;;;4.32;2.35;;;10.80;99.90;;;;;;4985150;28;20039;-87
2023/04/29 09:10:27;;;;;;;5.25;2.40;;;10.90;99.90;;;;;;4985508;28;20397;-84
2023/04/29 09:12:56;;;;;;;9.30;2.97;;;10.90;99.90;;;;;;4984619;28;20053;-86
2023/04/29 09:15:22;;;;;;;2.50;1.73;;;11.00;99.90;;;;;;4984178;28;20125;-84
2023/04/29 09:17:48;;;;;;;5.10;2.25;;;11.00;99.90;;;;;;4983735;28;20141;-86
2023/04/29 09:20:19;;;;;;;3.10;1.75;;;11.00;99.90;;;;;;4985015;28;20053;-87
2023/04/29 09:22:57;;;;;;;3.88;2.88;;;11.10;99.90;;;;;;4984692;28;20120;-85
2023/04/29 09:25:23;;;;;;;7.45;2.75;;;11.00;99.90;;;;;;4984373;28;20046;-83
2023/04/29 09:27:49;;;;;;;6.72;2.85;;;11.10;99.90;;;;;;4984121;28;20038;-87
2023/04/29 09:30:15;;;;;;;2.55;1.75;;;11.10;99.90;;;;;;4984415;28;20035;-86
2023/04/29 09:32:43;;;;;;;4.47;2.72;;;11.10;99.90;;;;;;4998703;28;20054;-85
2023/04/29 09:35:29;;;;;;;4.63;2.00;;;11.10;99.90;;;;;;4984148;28;20181;-86
2023/04/29 09:38:30;;;;;;;3.22;1.83;;;11.10;99.90;;;;;;4983028;28;20050;-87
2023/04/29 09:40:55;;;;;;;3.05;1.48;;;11.20;99.90;;;;;;4983440;28;20063;-85
2023/04/29 09:43:22;;;;;;;3.35;1.88;;;11.30;99.90;;;;;;4983816;28;20130;-85
2023/04/29 09:45:48;;;;;;;3.60;1.35;;;11.30;99.90;;;;;;4984883;28;20438;-82
2023/04/29 09:48:14;;;;;;;4.90;1.80;;;11.40;99.90;;;;;;4983575;28;20053;-87
2023/04/29 09:50:42;;;;;;;3.83;2.80;;;11.40;99.90;;;;;;4984022;28;20081;-82
2023/04/29 09:53:09;;;;;;;4.32;1.85;;;11.40;99.90;;;;;;4983448;28;20042;-85
2023/04/29 09:55:53;;;;;;;3.80;1.98;;;11.50;99.90;;;;;;4984620;28;20046;-81
2023/04/29 09:58:37;;;;;;;3.50;1.65;;;11.50;99.90;;;;;;4983157;28;20054;-84
2023/04/29 10:01:07;;;;;;;4.00;1.70;;;11.50;99.90;;;;;;4968482;28;20078;-84
2023/04/29 10:03:34;;;;;;;1.77;1.30;;;11.50;99.90;;;;;;4986931;28;20057;-86
2023/04/29 10:06:02;;;;;;;1.98;1.33;;;11.50;99.90;;;;;;4986832;28;20070;-83
2023/04/29 10:08:29;;;;;;;2.25;1.08;;;11.40;99.90;;;;;;4988045;28;20101;-86
2023/04/29 10:11:04;;;;;;;2.80;1.27;;;11.40;99.90;;;;;;4986399;28;20042;-86
2023/04/29 10:13:32;;;;;;;2.72;1.35;;;11.50;99.90;;;;;;4988276;28;20150;-86
2023/04/29 10:16:33;;;;;;;2.95;1.10;;;11.50;99.90;;;;;;4987990;28;20516;-86
2023/04/29 10:19:03;;;;;;;1.58;1.42;;;11.50;99.90;;;;;;4985506;28;20426;-83
2023/04/29 10:21:32;;;;;;;2.22;1.58;;;11.50;99.90;;;;;;4988783;28;20477;-89
2023/04/29 10:23:58;;;;;;;3.35;1.15;;;11.50;99.90;;;;;;4986385;28;20472;-83
2023/04/29 10:26:28;;;;;;;1.63;1.00;;;11.40;99.90;;;;;;4985992;28;20604;-85
2023/04/29 10:28:59;;;;;;;2.88;1.30;;;11.50;99.90;;;;;;4986522;28;20165;-88
2023/04/29 10:31:26;;;;;;;2.30;1.05;;;11.40;99.90;;;;;;4987623;28;20057;-85
2023/04/29 10:33:57;;;;;;;1.48;1.13;;;11.40;99.90;;;;;;4986532;28;20038;-88
2023/04/29 10:36:27;;;;;;;1.80;1.33;;;11.30;99.90;;;;;;4986226;28;20050;-84
2023/04/29 10:38:57;;;;;;;1.48;1.23;;;11.30;99.90;;;;;;4986223;28;20045;-86
2023/04/29 10:41:27;;;;;;;1.92;1.10;;;11.30;99.90;;;;;;4987557;28;20148;-85
2023/04/29 10:43:57;;;;;;;1.95;1.30;;;11.30;99.90;;;;;;4986157;28;20085;-86
2023/04/29 10:46:28;;;;;;;1.55;1.13;;;11.30;99.90;;;;;;4987290;28;20042;-85
2023/04/29 10:49:01;;;;;;;1.80;0.63;;;11.40;99.90;;;;;;4984899;28;20046;-86
2023/04/29 10:51:30;;;;;;;2.50;1.70;;;11.40;99.90;;;;;;4986009;28;20305;-84
2023/04/29 10:54:00;;;;;;;3.08;1.35;;;11.40;99.90;;;;;;4986258;28;20046;-86
2023/04/29 10:56:49;;;;;;;1.30;1.20;;;11.40;99.90;;;;;;4986872;28;20058;-85
2023/04/29 10:59:35;;;;;;;2.33;0.93;;;11.40;99.90;;;;;;4986984;28;20166;-87
2023/04/29 11:02:01;;;;;;;4.13;1.25;;;11.50;99.90;;;;;;4987474;28;20052;-85
2023/04/29 11:04:30;;;;;;;1.17;1.00;;;11.50;99.90;;;;;;5000915;28;20059;-86
2023/04/29 11:07:01;;;;;;;2.88;1.50;;;11.50;99.90;;;;;;4986941;28;20061;-87
2023/04/29 11:09:33;;;;;;;2.15;0.80;;;11.50;99.90;;;;;;4987649;28;20050;-85
2023/04/29 11:12:08;;;;;;;2.30;1.08;;;11.50;99.90;;;;;;4988323;28;20050;-85
2023/04/29 11:14:49;;;;;;;4.45;0.88;;;11.50;99.90;;;;;;4989067;28;20041;-87
2023/04/29 11:17:19;;;;;;;2.28;1.10;;;11.50;99.90;;;;;;4987899;28;20050;-86
2023/04/29 11:19:49;;;;;;;1.67;1.08;;;11.50;99.90;;;;;;4987492;28;20192;-85
2023/04/29 11:22:18;;;;;;;2.22;1.52;;;11.50;99.90;;;;;;4987458;28;20070;-82
2023/04/29 11:25:02;;;;;;;1.98;1.20;;;11.60;99.90;;;;;;4987239;28;20160;-85
2023/04/29 11:27:35;;;;;;;2.20;1.65;;;11.60;99.90;;;;;;4985045;28;20062;-86
2023/04/29 11:30:04;;;;;;;1.90;1.30;;;11.50;99.90;;;;;;5001359;28;20101;-85
2023/04/29 11:32:32;;;;;;;1.20;1.00;;;11.50;99.90;;;;;;5000268;28;20547;-88
2023/04/29 11:35:08;;;;;;;3.13;1.15;;;11.50;99.90;;;;;;4984887;28;20043;-81
2023/04/29 11:37:34;;;;;;;2.33;1.05;;;11.50;99.90;;;;;;4985719;28;20046;-87
2023/04/29 11:40:01;;;;;;;3.92;2.28;;;11.60;99.90;;;;;;4986301;28;20053;-86
2023/04/29 11:42:27;;;;;;;3.35;1.38;;;11.60;99.90;;;;;;4986700;28;20216;-86
2023/04/29 11:44:59;;;;;;;1.48;1.35;;;11.60;99.90;;;;;;4985110;28;20046;-87
2023/04/29 11:47:29;;;;;;;5.18;2.83;;;11.60;99.90;;;;;;4984808;28;20039;-84
2023/04/29 11:50:06;;;;;;;1.83;1.13;;;11.60;99.90;;;;;;4985088;28;20050;-86
2023/04/29 11:52:33;;;;;;;4.07;2.25;;;11.60;99.90;;;;;;4984715;28;20042;-87
2023/04/29 11:54:59;;;;;;;1.77;1.05;;;11.60;99.90;;;;;;4986037;28;20045;-85
2023/04/29 11:57:25;;;;;;;1.48;1.00;;;11.60;99.90;;;;;;4985986;28;20129;-85
2023/04/29 11:59:52;;;;;;;0.82;0.80;;;11.60;99.90;;;;;;4985829;28;20042;-87
2023/04/29 12:02:21;;;;;;;1.02;0.70;;;11.60;99.90;;;;;;4985458;28;20054;-87
2023/04/29 12:04:46;;;;;;;2.15;0.80;;;11.60;99.90;;;;;;4985074;28;20570;-85
2023/04/29 12:07:16;;;;;;;1.42;0.80;;;11.70;99.90;;;;;;4985545;28;20042;-87
2023/04/29 12:09:45;;;;;;;1.10;0.85;;;11.70;99.90;;;;;;4985600;28;20404;-85
2023/04/29 12:12:12;;;;;;;1.10;0.75;;;11.70;99.90;;;;;;4985222;28;20046;-85
2023/04/29 12:14:40;;;;;;;1.17;1.08;;;11.70;99.90;;;;;;4986166;28;20499;-87
2023/04/29 12:17:06;;;;;;;3.00;0.70;;;11.70;99.90;;;;;;4985485;28;20042;-86
2023/04/29 12:19:32;;;;;;;1.08;1.02;;;11.80;99.90;;;;;;4985470;28;20038;-84
2023/04/29 12:22:02;;;;;;;1.60;0.95;;;11.80;99.90;;;;;;5000289;28;20112;-88
2023/04/29 12:24:27;;;;;;;2.95;1.05;;;11.80;99.90;;;;;;4985776;28;20290;-86
2023/04/29 12:26:54;;;;;;;0.93;0.80;;;11.80;99.90;;;;;;4983838;28;20069;-84
2023/04/29 12:29:23;;;;;;;1.10;0.98;;;11.90;99.90;;;;;;4983745;28;20066;-86
2023/04/29 12:31:50;;;;;;;1.13;0.70;;;11.90;99.90;;;;;;4985098;28;20042;-82
2023/04/29 12:34:16;;;;;;;5.03;1.25;;;11.90;99.90;;;;;;4982988;28;20046;-85
2023/04/29 12:36:42;;;;;;;1.33;1.23;;;12.00;99.90;;;;;;4984290;28;20069;-85
2023/04/29 12:39:10;;;;;;;2.25;0.60;;;12.00;99.90;;;;;;4986730;28;20043;-87
2023/04/29 12:41:41;;;;;;;3.25;0.85;;;12.00;99.90;;;;;;4985362;28;20098;-86
2023/04/29 12:44:07;;;;;;;2.35;0.80;;;12.00;99.90;;;;;;4984723;28;20042;-87
2023/04/29 12:46:37;;;;;;;1.85;0.57;;;12.10;99.90;;;;;;4985197;28;20038;-85
2023/04/29 12:49:03;;;;;;;0.95;0.63;;;12.10;99.90;;;;;;4983957;28;20030;-87
2023/04/29 12:51:31;;;;;;;1.40;0.60;;;12.10;99.90;;;;;;4985119;28;20238;-87
2023/04/29 12:54:00;;;;;;;2.22;0.75;;;12.10;99.90;;;;;;4984688;28;20325;-81